Thursday, January 17, 2019, 8:25 PM EST
Back to Local

KFRG, Farmingdale Republic Airport

Location: Farmingdale, NY, United States Lat: 40.733
Local Time: 8:25 PM EST ( 1:25 GMT) Lon: -73.417
Time Zone: US/Eastern Elev: 82 ft

Show me the last for .
Show Decoded

2019-01-17 19:53 METAR KFRG 180053Z 07008KT 10SM CLR M03/M13 A3031 RMK AO2 SLP266 T10281128 =
2019-01-17 18:53 METAR KFRG 172353Z 09006KT 10SM CLR M02/M13 A3032 RMK AO2 SLP270 T10221128 11006
                 21022 52002 =
2019-01-17 17:53 METAR KFRG 172253Z 11003KT 10SM CLR M02/M14 A3032 RMK AO2 SLP268 T10221139 =
2019-01-17 16:53 METAR KFRG 172153Z 15013KT 10SM FEW120 M02/M14 A3032 RMK AO2 SLP269 T10221139 =
2019-01-17 15:53 METAR KFRG 172053Z 08010KT 10SM BKN120 M02/M17 A3032 RMK AO2 SLP266 T10171172
                 57016 =
2019-01-17 14:53 METAR KFRG 171953Z 11004KT 10SM CLR M01/M16 A3034 RMK AO2 SLP273 T10111161 =
2019-01-17 13:53 METAR KFRG 171853Z VRB06KT 10SM CLR M01/M16 A3035 RMK AO2 SLP276 T10111161 =
2019-01-17 12:53 METAR KFRG 171753Z 07010KT 10SM CLR M01/M16 A3037 RMK AO2 SLP283 T10111156 11011
                 21044 58019 =
2019-01-17 11:53 METAR KFRG 171653Z VRB06KT 10SM CLR M02/M14 A3039 RMK AO2 SLP293 T10171144 =
2019-01-17 10:53 METAR KFRG 171553Z 04009G14KT 10SM CLR M02/M12 A3042 RMK AO2 SLP300 T10171122 =
2019-01-17 09:53 METAR KFRG 171453Z 04008KT 10SM CLR M03/M12 A3042 RMK AO2 SLP302 T10281117 53017
                 =
2019-01-17 08:53 METAR KFRG 171353Z AUTO 03008KT 10SM CLR M03/M12 A3040 RMK AO2 SLP295 T10331122
                 =
2019-01-17 07:53 METAR KFRG 171253Z AUTO VRB05KT 10SM CLR M04/M12 A3039 RMK AO2 SLP292 T10391122
                 =
2019-01-17 06:53 METAR KFRG 171153Z AUTO VRB03KT 10SM CLR M04/M13 A3037 RMK AO2 SLP285 T10441128
                 10000 21044 53023 =
2019-01-17 05:53 METAR KFRG 171053Z AUTO VRB06KT 10SM CLR M04/M13 A3034 RMK AO2 SLP276 T10391128
                 =
2019-01-17 04:53 METAR KFRG 170953Z AUTO VRB04KT 10SM CLR M03/M13 A3032 RMK AO2 SLP267 T10331133
                 =
2019-01-17 03:53 METAR KFRG 170853Z AUTO VRB05KT 10SM CLR M03/M14 A3030 RMK AO2 SLP262 T10281144
                 51019 =
2019-01-17 02:53 METAR KFRG 170753Z AUTO VRB05KT 10SM CLR M02/M14 A3029 RMK AO2 SLP258 T10221144
                 =
2019-01-17 01:53 METAR KFRG 170653Z AUTO 32010G16KT 10SM CLR M01/M16 A3028 RMK AO2 SLP253
                 T10111156 =
2019-01-17 00:53 METAR KFRG 170553Z AUTO 33007KT 290V360 10SM CLR 00/M12 A3025 RMK AO2 SLP242
                 T00001117 10028 21006 51024 =
2019-01-16 23:53 METAR KFRG 170453Z AUTO VRB05KT 10SM CLR 01/M10 A3022 RMK AO2 SLP234 T00061100
                 400331061 =
2019-01-16 22:53 METAR KFRG 170353Z 35007G14KT 320V030 10SM CLR 02/M08 A3021 RMK AO2 SLP229
                 T00171078 =
2019-01-16 21:53 METAR KFRG 170253Z 30009G15KT 10SM BKN055 02/M07 A3017 RMK AO2 SLP218 T00221067
                 53024 =
2019-01-16 20:53 METAR KFRG 170153Z 27005KT 10SM OVC050 02/M06 A3014 RMK AO2 SLP206 T00221056 =

Support USWX by starting your Amazon purchase here.